Samos, Greece

7:44 AM EET on December 06, 2016 (GMT +0200)
Samos | | Change Station

Elev 23 ft 37.69 °N, 26.91 °E | Updated 24 minutes ago

Clear
Clear
50 °F
Feels Like 50 °F
N
6
Wind Variable Wind from North

Today
High -- | Low -- °F
--% Chance of Precip.
Yesterday
High -- | Low -- °F
Precip. -- in
Pressure 30.30 in
Visibility -9999.0 miles
Clouds
Dew Point 43 °F
Humidity 76%
Rainfall 0.00 in
Snow Depth Not available.
7:13 AM 4:53 PM
Waxing Crescent, 38% visible
METAR LGSM 060520Z 36005KT CAVOK 10/06 Q1026
Pressure 30.30 in
Visibility -9999.0 miles
Clouds
Dew Point 43 °F
Humidity 76%
Rainfall 0.00 in
Snow Depth Not available.
7:13 AM 4:53 PM
Waxing Crescent, 38% visible
METAR LGSM 060520Z 36005KT CAVOK 10/06 Q1026

10-Day Weather Forecast

×

Almanac

Astronomy

Dec. 06, 2016 Rise Set
Actual Time
Civil Twilight
Nautical Twilight
Astronomical Twilight
Moon
Length of Visible Light
Length of Day
Tomorrow will be .
, % of the Moon is Illuminated

Today's Extremes

Country Highs Country Lows

Community

WunderPhotos

Upload Photos

1,955,931 photos uploaded!

WunderBlog® & News

Nearby

Air Quality

  Air Quality AQ Index Pollutant
Not available.

Snow Depth

Station Depth Elevation

Earthquake Activity

City Distance Mag. Time & Date
Minimum magnitude displayed is 2.5.

Coastal Water Temperatures

Place Temperature

Stations

Nearby Weather Stations

Station Location Temp. Windchill Dew Point Humidity Wind Precip. Elev Updated Type